Portada
METAR-TAF:

METAR-TAF

Aeroports :

Plataforma petroliera

Troll A, Noruega

latitud: 60-38-42N, longitud: 3-43-29E, altitud: 20 m

Observació

L'informe es va fer fa 43 minuts, a les 10:20 UTC
Vent 54 kt del Sud/Sud-Oest amb ràfegues de 64 kt
Temperatura 6°C
Humitat 87%
Pressió 986 hPa
Visibilitat: 1700 m
pluja

METAR: ENQA 211020Z AUTO 20054G64KT 1700NDV -RA OVC011/// 06/04 Q0986 W06/S6

Hora: 12:03 (11:03 UTC)


TAF: manca

Observacions i pronòstics meteorològics de més de 4000 aeroports (METAR i TAF).

Les estacions disponibles són els punts grocs i vermells al mapa.

Posi el ratolí al punt desitjat per veure el nom de l'estació.

Feu clic per veure les observacions i els pronòstics meteorològics.

Per canviar el mapa: feu clic els botons verds amb una creu de color negre per apropar; al botó verd amb un guió per allunyar la imatge; o en les fletxes verdes per a mapes adjacents.


METAR-TAF: